sensor_id;sensor_type;location;lat;lon;timestamp;P1;durP1;ratioP1;P2;durP2;ratioP2
31384;SDS011;18016;49.788;8.742;2023-01-26T00:01:15;42.28;;;21.67;;
31384;SDS011;18016;49.788;8.742;2023-01-26T00:03:40;41.90;;;20.88;;
31384;SDS011;18016;49.788;8.742;2023-01-26T00:06:06;43.42;;;20.83;;
31384;SDS011;18016;49.788;8.742;2023-01-26T00:08:35;40.45;;;19.65;;
31384;SDS011;18016;49.788;8.742;2023-01-26T00:11:04;38.40;;;20.27;;
31384;SDS011;18016;49.788;8.742;2023-01-26T00:13:29;43.47;;;21.30;;
31384;SDS011;18016;49.788;8.742;2023-01-26T00:15:54;41.55;;;20.98;;
31384;SDS011;18016;49.788;8.742;2023-01-26T00:18:19;44.55;;;23.10;;
31384;SDS011;18016;49.788;8.742;2023-01-26T00:20:44;47.63;;;22.67;;
31384;SDS011;18016;49.788;8.742;2023-01-26T00:23:11;43.33;;;22.60;;
31384;SDS011;18016;49.788;8.742;2023-01-26T00:25:37;44.53;;;22.50;;
31384;SDS011;18016;49.788;8.742;2023-01-26T00:28:03;40.83;;;21.55;;
31384;SDS011;18016;49.788;8.742;2023-01-26T00:30:29;39.70;;;19.83;;
31384;SDS011;18016;49.788;8.742;2023-01-26T00:32:54;41.17;;;22.53;;
31384;SDS011;18016;49.788;8.742;2023-01-26T00:35:21;41.60;;;21.00;;
31384;SDS011;18016;49.788;8.742;2023-01-26T00:37:46;41.27;;;21.70;;
31384;SDS011;18016;49.788;8.742;2023-01-26T00:40:11;41.60;;;21.33;;
31384;SDS011;18016;49.788;8.742;2023-01-26T00:42:36;44.10;;;23.47;;
31384;SDS011;18016;49.788;8.742;2023-01-26T00:45:03;44.17;;;22.13;;
31384;SDS011;18016;49.788;8.742;2023-01-26T00:47:29;48.45;;;22.25;;
31384;SDS011;18016;49.788;8.742;2023-01-26T00:49:54;46.23;;;24.33;;
31384;SDS011;18016;49.788;8.742;2023-01-26T00:52:19;46.53;;;22.30;;
31384;SDS011;18016;49.788;8.742;2023-01-26T00:54:44;41.57;;;22.10;;
31384;SDS011;18016;49.788;8.742;2023-01-26T00:57:09;44.58;;;22.58;;
31384;SDS011;18016;49.788;8.742;2023-01-26T00:59:35;48.50;;;23.52;;
31384;SDS011;18016;49.788;8.742;2023-01-26T01:02:00;42.65;;;21.50;;
31384;SDS011;18016;49.788;8.742;2023-01-26T01:04:26;47.40;;;22.17;;
31384;SDS011;18016;49.788;8.742;2023-01-26T01:06:51;46.53;;;21.95;;
31384;SDS011;18016;49.788;8.742;2023-01-26T01:09:17;44.93;;;22.83;;
31384;SDS011;18016;49.788;8.742;2023-01-26T01:11:42;48.63;;;23.20;;
31384;SDS011;18016;49.788;8.742;2023-01-26T01:14:09;46.10;;;24.13;;
31384;SDS011;18016;49.788;8.742;2023-01-26T01:16:34;43.20;;;21.50;;
31384;SDS011;18016;49.788;8.742;2023-01-26T01:19:00;52.22;;;24.63;;
31384;SDS011;18016;49.788;8.742;2023-01-26T01:21:25;45.33;;;22.90;;
31384;SDS011;18016;49.788;8.742;2023-01-26T01:23:50;47.75;;;23.27;;
31384;SDS011;18016;49.788;8.742;2023-01-26T01:26:16;48.63;;;23.73;;
31384;SDS011;18016;49.788;8.742;2023-01-26T01:28:41;53.58;;;24.52;;
31384;SDS011;18016;49.788;8.742;2023-01-26T01:31:08;48.90;;;24.90;;
31384;SDS011;18016;49.788;8.742;2023-01-26T01:33:34;46.35;;;24.23;;
31384;SDS011;18016;49.788;8.742;2023-01-26T01:36:00;51.10;;;24.20;;
31384;SDS011;18016;49.788;8.742;2023-01-26T01:38:25;47.80;;;24.15;;
31384;SDS011;18016;49.788;8.742;2023-01-26T01:40:51;47.85;;;23.98;;
31384;SDS011;18016;49.788;8.742;2023-01-26T01:43:16;48.88;;;24.08;;
31384;SDS011;18016;49.788;8.742;2023-01-26T01:45:45;51.37;;;24.87;;
31384;SDS011;18016;49.788;8.742;2023-01-26T01:48:12;55.58;;;24.75;;
31384;SDS011;18016;49.788;8.742;2023-01-26T01:50:39;51.53;;;21.92;;
31384;SDS011;18016;49.788;8.742;2023-01-26T01:53:05;40.65;;;19.48;;
31384;SDS011;18016;49.788;8.742;2023-01-26T01:55:31;41.58;;;20.50;;
31384;SDS011;18016;49.788;8.742;2023-01-26T01:57:57;42.65;;;21.92;;
31384;SDS011;18016;49.788;8.742;2023-01-26T02:00:24;46.92;;;22.23;;
31384;SDS011;18016;49.788;8.742;2023-01-26T02:02:52;51.88;;;23.63;;
31384;SDS011;18016;49.788;8.742;2023-01-26T02:05:40;49.40;;;23.67;;
31384;SDS011;18016;49.788;8.742;2023-01-26T02:08:06;48.35;;;22.70;;
31384;SDS011;18016;49.788;8.742;2023-01-26T02:10:33;45.33;;;21.50;;
31384;SDS011;18016;49.788;8.742;2023-01-26T02:12:59;45.20;;;21.52;;
31384;SDS011;18016;49.788;8.742;2023-01-26T02:15:25;46.00;;;20.80;;
31384;SDS011;18016;49.788;8.742;2023-01-26T02:17:51;48.75;;;23.90;;
31384;SDS011;18016;49.788;8.742;2023-01-26T02:27:50;47.80;;;22.70;;
31384;SDS011;18016;49.788;8.742;2023-01-26T02:30:15;48.70;;;23.40;;
31384;SDS011;18016;49.788;8.742;2023-01-26T02:32:41;47.75;;;21.55;;
31384;SDS011;18016;49.788;8.742;2023-01-26T02:35:06;49.38;;;23.17;;
31384;SDS011;18016;49.788;8.742;2023-01-26T02:37:32;52.35;;;24.35;;
31384;SDS011;18016;49.788;8.742;2023-01-26T02:40:14;47.58;;;23.13;;
31384;SDS011;18016;49.788;8.742;2023-01-26T02:42:40;46.75;;;21.70;;
31384;SDS011;18016;49.788;8.742;2023-01-26T02:45:06;44.47;;;21.08;;
31384;SDS011;18016;49.788;8.742;2023-01-26T02:47:32;41.50;;;21.80;;
31384;SDS011;18016;49.788;8.742;2023-01-26T02:49:57;50.72;;;23.40;;
31384;SDS011;18016;49.788;8.742;2023-01-26T02:52:25;49.13;;;22.02;;
31384;SDS011;18016;49.788;8.742;2023-01-26T02:54:51;50.85;;;21.73;;
31384;SDS011;18016;49.788;8.742;2023-01-26T02:57:34;42.35;;;21.05;;
31384;SDS011;18016;49.788;8.742;2023-01-26T03:00:00;44.25;;;21.90;;
31384;SDS011;18016;49.788;8.742;2023-01-26T03:02:25;42.15;;;20.00;;
31384;SDS011;18016;49.788;8.742;2023-01-26T03:04:50;42.45;;;20.48;;
31384;SDS011;18016;49.788;8.742;2023-01-26T03:07:15;43.30;;;20.23;;
31384;SDS011;18016;49.788;8.742;2023-01-26T03:09:40;38.53;;;19.13;;
31384;SDS011;18016;49.788;8.742;2023-01-26T03:12:06;39.63;;;20.43;;
31384;SDS011;18016;49.788;8.742;2023-01-26T03:14:31;45.60;;;20.60;;
31384;SDS011;18016;49.788;8.742;2023-01-26T03:16:56;43.57;;;21.70;;
31384;SDS011;18016;49.788;8.742;2023-01-26T03:19:21;47.60;;;19.93;;
31384;SDS011;18016;49.788;8.742;2023-01-26T03:22:05;42.17;;;19.83;;
31384;SDS011;18016;49.788;8.742;2023-01-26T03:24:48;40.60;;;19.88;;
31384;SDS011;18016;49.788;8.742;2023-01-26T03:27:37;44.28;;;19.98;;
31384;SDS011;18016;49.788;8.742;2023-01-26T03:30:03;41.13;;;19.60;;
31384;SDS011;18016;49.788;8.742;2023-01-26T03:32:28;42.03;;;18.75;;
31384;SDS011;18016;49.788;8.742;2023-01-26T03:34:53;48.70;;;19.77;;
31384;SDS011;18016;49.788;8.742;2023-01-26T03:37:18;39.27;;;19.03;;
31384;SDS011;18016;49.788;8.742;2023-01-26T03:39:47;41.50;;;18.63;;
31384;SDS011;18016;49.788;8.742;2023-01-26T03:42:31;42.17;;;18.13;;
31384;SDS011;18016;49.788;8.742;2023-01-26T03:45:15;40.47;;;19.02;;
31384;SDS011;18016;49.788;8.742;2023-01-26T03:48:03;34.17;;;16.42;;
31384;SDS011;18016;49.788;8.742;2023-01-26T03:50:47;36.22;;;16.85;;
31384;SDS011;18016;49.788;8.742;2023-01-26T03:53:31;35.10;;;17.92;;
31384;SDS011;18016;49.788;8.742;2023-01-26T03:56:15;34.70;;;16.80;;
31384;SDS011;18016;49.788;8.742;2023-01-26T04:20:05;25.35;;;14.00;;
31384;SDS011;18016;49.788;8.742;2023-01-26T04:22:49;22.77;;;12.07;;
31384;SDS011;18016;49.788;8.742;2023-01-26T04:25:15;20.00;;;10.70;;
31384;SDS011;18016;49.788;8.742;2023-01-26T04:27:41;17.20;;;9.05;;
31384;SDS011;18016;49.788;8.742;2023-01-26T04:30:07;15.68;;;8.85;;
31384;SDS011;18016;49.788;8.742;2023-01-26T04:32:32;19.42;;;10.13;;
31384;SDS011;18016;49.788;8.742;2023-01-26T04:34:58;19.23;;;10.27;;
31384;SDS011;18016;49.788;8.742;2023-01-26T04:37:23;20.17;;;10.13;;
31384;SDS011;18016;49.788;8.742;2023-01-26T04:39:48;19.47;;;10.03;;
31384;SDS011;18016;49.788;8.742;2023-01-26T04:42:13;17.15;;;9.98;;
31384;SDS011;18016;49.788;8.742;2023-01-26T04:44:38;16.42;;;8.73;;
31384;SDS011;18016;49.788;8.742;2023-01-26T04:47:03;15.93;;;8.90;;
31384;SDS011;18016;49.788;8.742;2023-01-26T04:49:29;19.33;;;10.40;;
31384;SDS011;18016;49.788;8.742;2023-01-26T04:51:54;18.83;;;10.03;;
31384;SDS011;18016;49.788;8.742;2023-01-26T04:54:19;16.45;;;9.18;;
31384;SDS011;18016;49.788;8.742;2023-01-26T04:56:44;19.70;;;9.75;;
31384;SDS011;18016;49.788;8.742;2023-01-26T04:59:10;18.98;;;10.48;;
31384;SDS011;18016;49.788;8.742;2023-01-26T05:01:35;18.55;;;9.75;;
31384;SDS011;18016;49.788;8.742;2023-01-26T05:04:01;17.83;;;10.18;;
31384;SDS011;18016;49.788;8.742;2023-01-26T05:06:27;21.63;;;10.13;;
31384;SDS011;18016;49.788;8.742;2023-01-26T05:08:52;21.07;;;10.70;;
31384;SDS011;18016;49.788;8.742;2023-01-26T05:11:17;19.87;;;10.00;;
31384;SDS011;18016;49.788;8.742;2023-01-26T05:13:42;21.27;;;11.20;;
31384;SDS011;18016;49.788;8.742;2023-01-26T05:16:07;21.00;;;10.83;;
31384;SDS011;18016;49.788;8.742;2023-01-26T05:18:32;19.83;;;11.35;;
31384;SDS011;18016;49.788;8.742;2023-01-26T05:20:58;23.47;;;12.37;;
31384;SDS011;18016;49.788;8.742;2023-01-26T05:23:23;24.98;;;12.27;;
31384;SDS011;18016;49.788;8.742;2023-01-26T05:25:48;29.25;;;13.70;;
31384;SDS011;18016;49.788;8.742;2023-01-26T05:28:13;25.90;;;12.82;;
31384;SDS011;18016;49.788;8.742;2023-01-26T05:30:39;24.33;;;12.32;;
31384;SDS011;18016;49.788;8.742;2023-01-26T05:33:05;24.88;;;11.57;;
31384;SDS011;18016;49.788;8.742;2023-01-26T05:35:30;25.92;;;12.90;;
31384;SDS011;18016;49.788;8.742;2023-01-26T05:37:55;25.58;;;12.45;;
31384;SDS011;18016;49.788;8.742;2023-01-26T05:40:21;24.97;;;12.47;;
31384;SDS011;18016;49.788;8.742;2023-01-26T05:42:46;26.27;;;13.07;;
31384;SDS011;18016;49.788;8.742;2023-01-26T05:45:11;25.70;;;12.95;;
31384;SDS011;18016;49.788;8.742;2023-01-26T05:47:36;28.73;;;13.77;;
31384;SDS011;18016;49.788;8.742;2023-01-26T05:50:02;26.15;;;13.35;;
31384;SDS011;18016;49.788;8.742;2023-01-26T05:52:27;26.95;;;13.20;;
31384;SDS011;18016;49.788;8.742;2023-01-26T05:54:52;29.03;;;12.33;;
31384;SDS011;18016;49.788;8.742;2023-01-26T05:57:18;29.00;;;13.90;;
31384;SDS011;18016;49.788;8.742;2023-01-26T05:59:43;28.30;;;13.52;;
31384;SDS011;18016;49.788;8.742;2023-01-26T06:02:10;27.02;;;13.25;;
31384;SDS011;18016;49.788;8.742;2023-01-26T06:04:35;24.65;;;13.00;;
31384;SDS011;18016;49.788;8.742;2023-01-26T06:07:00;27.07;;;13.57;;
31384;SDS011;18016;49.788;8.742;2023-01-26T06:09:25;30.10;;;14.10;;
31384;SDS011;18016;49.788;8.742;2023-01-26T06:11:50;25.55;;;12.45;;
31384;SDS011;18016;49.788;8.742;2023-01-26T06:14:16;23.20;;;10.57;;
31384;SDS011;18016;49.788;8.742;2023-01-26T06:16:41;16.80;;;9.10;;
31384;SDS011;18016;49.788;8.742;2023-01-26T06:19:07;21.10;;;10.32;;
31384;SDS011;18016;49.788;8.742;2023-01-26T06:21:33;24.38;;;11.25;;
31384;SDS011;18016;49.788;8.742;2023-01-26T06:23:58;22.80;;;10.70;;
31384;SDS011;18016;49.788;8.742;2023-01-26T06:26:23;22.10;;;12.20;;
31384;SDS011;18016;49.788;8.742;2023-01-26T06:28:49;24.75;;;11.52;;
31384;SDS011;18016;49.788;8.742;2023-01-26T06:31:14;21.08;;;11.50;;
31384;SDS011;18016;49.788;8.742;2023-01-26T06:33:39;21.43;;;11.23;;
31384;SDS011;18016;49.788;8.742;2023-01-26T06:36:05;24.05;;;11.90;;
31384;SDS011;18016;49.788;8.742;2023-01-26T06:38:30;22.38;;;12.45;;
31384;SDS011;18016;49.788;8.742;2023-01-26T06:40:59;25.63;;;13.63;;
31384;SDS011;18016;49.788;8.742;2023-01-26T06:43:26;23.90;;;12.55;;
31384;SDS011;18016;49.788;8.742;2023-01-26T06:45:54;20.73;;;11.53;;
31384;SDS011;18016;49.788;8.742;2023-01-26T06:48:19;16.42;;;8.98;;
31384;SDS011;18016;49.788;8.742;2023-01-26T06:50:44;14.97;;;8.70;;
31384;SDS011;18016;49.788;8.742;2023-01-26T06:53:28;14.43;;;8.30;;
31384;SDS011;18016;49.788;8.742;2023-01-26T06:55:53;13.50;;;7.75;;
31384;SDS011;18016;49.788;8.742;2023-01-26T06:58:18;13.73;;;6.93;;
31384;SDS011;18016;49.788;8.742;2023-01-26T07:00:43;12.57;;;7.23;;
31384;SDS011;18016;49.788;8.742;2023-01-26T07:03:09;14.75;;;8.32;;
31384;SDS011;18016;49.788;8.742;2023-01-26T07:05:34;14.55;;;8.05;;
31384;SDS011;18016;49.788;8.742;2023-01-26T07:07:59;12.70;;;7.47;;
31384;SDS011;18016;49.788;8.742;2023-01-26T07:10:26;12.35;;;7.18;;
31384;SDS011;18016;49.788;8.742;2023-01-26T07:12:51;12.48;;;6.90;;
31384;SDS011;18016;49.788;8.742;2023-01-26T07:15:16;12.15;;;6.53;;
31384;SDS011;18016;49.788;8.742;2023-01-26T07:17:41;10.83;;;6.60;;
31384;SDS011;18016;49.788;8.742;2023-01-26T07:20:07;9.80;;;6.07;;
31384;SDS011;18016;49.788;8.742;2023-01-26T07:22:32;10.85;;;5.97;;
31384;SDS011;18016;49.788;8.742;2023-01-26T07:24:57;9.37;;;5.90;;
31384;SDS011;18016;49.788;8.742;2023-01-26T07:27:22;8.33;;;5.47;;
31384;SDS011;18016;49.788;8.742;2023-01-26T07:29:48;14.67;;;6.13;;
31384;SDS011;18016;49.788;8.742;2023-01-26T07:32:14;11.88;;;7.25;;
31384;SDS011;18016;49.788;8.742;2023-01-26T07:34:39;11.40;;;6.90;;
31384;SDS011;18016;49.788;8.742;2023-01-26T07:37:04;11.45;;;5.47;;
31384;SDS011;18016;49.788;8.742;2023-01-26T07:39:29;11.40;;;6.63;;
31384;SDS011;18016;49.788;8.742;2023-01-26T07:41:55;46.10;;;16.48;;
31384;SDS011;18016;49.788;8.742;2023-01-26T07:44:20;173.93;;;46.97;;
31384;SDS011;18016;49.788;8.742;2023-01-26T07:46:45;30.80;;;11.80;;
31384;SDS011;18016;49.788;8.742;2023-01-26T07:49:10;16.20;;;8.33;;
31384;SDS011;18016;49.788;8.742;2023-01-26T07:51:36;12.90;;;7.88;;
31384;SDS011;18016;49.788;8.742;2023-01-26T07:54:03;14.82;;;7.57;;
31384;SDS011;18016;49.788;8.742;2023-01-26T07:56:28;14.40;;;8.30;;
31384;SDS011;18016;49.788;8.742;2023-01-26T07:58:53;15.10;;;8.33;;
31384;SDS011;18016;49.788;8.742;2023-01-26T08:01:19;18.15;;;9.02;;
31384;SDS011;18016;49.788;8.742;2023-01-26T08:03:44;15.40;;;8.35;;
31384;SDS011;18016;49.788;8.742;2023-01-26T08:06:10;14.73;;;8.57;;
31384;SDS011;18016;49.788;8.742;2023-01-26T08:08:35;14.68;;;8.77;;
31384;SDS011;18016;49.788;8.742;2023-01-26T08:11:01;17.02;;;9.00;;
31384;SDS011;18016;49.788;8.742;2023-01-26T08:13:27;15.65;;;8.85;;
31384;SDS011;18016;49.788;8.742;2023-01-26T08:15:52;16.52;;;9.40;;
31384;SDS011;18016;49.788;8.742;2023-01-26T08:18:18;14.38;;;8.55;;
31384;SDS011;18016;49.788;8.742;2023-01-26T08:20:49;14.57;;;8.10;;
31384;SDS011;18016;49.788;8.742;2023-01-26T08:23:14;15.43;;;8.68;;
31384;SDS011;18016;49.788;8.742;2023-01-26T08:25:40;11.23;;;7.23;;
31384;SDS011;18016;49.788;8.742;2023-01-26T08:28:05;13.32;;;7.75;;
31384;SDS011;18016;49.788;8.742;2023-01-26T08:30:30;15.73;;;8.30;;
31384;SDS011;18016;49.788;8.742;2023-01-26T08:32:55;16.03;;;7.87;;
31384;SDS011;18016;49.788;8.742;2023-01-26T08:35:21;15.07;;;8.30;;
31384;SDS011;18016;49.788;8.742;2023-01-26T08:37:46;13.63;;;8.13;;
31384;SDS011;18016;49.788;8.742;2023-01-26T08:40:12;12.48;;;7.25;;
31384;SDS011;18016;49.788;8.742;2023-01-26T08:42:37;11.02;;;6.90;;
31384;SDS011;18016;49.788;8.742;2023-01-26T08:45:02;10.57;;;6.27;;
31384;SDS011;18016;49.788;8.742;2023-01-26T08:47:27;12.77;;;6.38;;
31384;SDS011;18016;49.788;8.742;2023-01-26T08:49:52;12.17;;;6.07;;
31384;SDS011;18016;49.788;8.742;2023-01-26T08:52:18;11.90;;;6.30;;
31384;SDS011;18016;49.788;8.742;2023-01-26T08:54:45;9.82;;;5.60;;
31384;SDS011;18016;49.788;8.742;2023-01-26T08:57:10;9.80;;;5.82;;
31384;SDS011;18016;49.788;8.742;2023-01-26T08:59:36;9.27;;;5.72;;
31384;SDS011;18016;49.788;8.742;2023-01-26T09:02:01;10.10;;;5.70;;
31384;SDS011;18016;49.788;8.742;2023-01-26T09:04:26;11.03;;;5.97;;
31384;SDS011;18016;49.788;8.742;2023-01-26T09:06:51;8.90;;;5.40;;
31384;SDS011;18016;49.788;8.742;2023-01-26T09:09:16;11.30;;;5.60;;
31384;SDS011;18016;49.788;8.742;2023-01-26T09:11:42;9.83;;;5.83;;
31384;SDS011;18016;49.788;8.742;2023-01-26T09:14:07;9.65;;;6.03;;
31384;SDS011;18016;49.788;8.742;2023-01-26T09:16:32;9.40;;;5.90;;
31384;SDS011;18016;49.788;8.742;2023-01-26T09:18:57;9.37;;;5.63;;
31384;SDS011;18016;49.788;8.742;2023-01-26T09:21:22;11.20;;;6.38;;
31384;SDS011;18016;49.788;8.742;2023-01-26T09:23:48;9.07;;;5.28;;
31384;SDS011;18016;49.788;8.742;2023-01-26T09:26:13;8.35;;;5.40;;
31384;SDS011;18016;49.788;8.742;2023-01-26T09:28:38;7.13;;;5.07;;
31384;SDS011;18016;49.788;8.742;2023-01-26T09:31:04;8.90;;;5.77;;
31384;SDS011;18016;49.788;8.742;2023-01-26T09:33:30;9.60;;;5.70;;
31384;SDS011;18016;49.788;8.742;2023-01-26T09:35:55;7.40;;;4.97;;
31384;SDS011;18016;49.788;8.742;2023-01-26T09:38:20;9.40;;;6.40;;
31384;SDS011;18016;49.788;8.742;2023-01-26T09:43:41;16.63;;;10.52;;
31384;SDS011;18016;49.788;8.742;2023-01-26T09:48:42;33.78;;;22.50;;
31384;SDS011;18016;49.788;8.742;2023-01-26T09:53:38;19.17;;;12.60;;
31384;SDS011;18016;49.788;8.742;2023-01-26T09:56:05;9.75;;;6.97;;
31384;SDS011;18016;49.788;8.742;2023-01-26T09:58:32;20.27;;;10.55;;
31384;SDS011;18016;49.788;8.742;2023-01-26T10:00:59;16.35;;;10.95;;
31384;SDS011;18016;49.788;8.742;2023-01-26T10:03:40;13.60;;;8.57;;
31384;SDS011;18016;49.788;8.742;2023-01-26T10:08:45;12.80;;;7.80;;
31384;SDS011;18016;49.788;8.742;2023-01-26T10:11:13;11.98;;;7.75;;
31384;SDS011;18016;49.788;8.742;2023-01-26T10:13:40;11.00;;;7.63;;
31384;SDS011;18016;49.788;8.742;2023-01-26T10:16:08;13.20;;;7.97;;
31384;SDS011;18016;49.788;8.742;2023-01-26T10:18:36;12.80;;;8.65;;
31384;SDS011;18016;49.788;8.742;2023-01-26T10:21:04;12.32;;;8.48;;
31384;SDS011;18016;49.788;8.742;2023-01-26T10:23:32;11.52;;;7.78;;
31384;SDS011;18016;49.788;8.742;2023-01-26T10:26:01;13.20;;;8.50;;
31384;SDS011;18016;49.788;8.742;2023-01-26T10:28:29;12.80;;;8.70;;
31384;SDS011;18016;49.788;8.742;2023-01-26T10:30:55;13.27;;;8.38;;
31384;SDS011;18016;49.788;8.742;2023-01-26T10:33:24;13.98;;;8.73;;
31384;SDS011;18016;49.788;8.742;2023-01-26T10:35:50;17.35;;;9.55;;
31384;SDS011;18016;49.788;8.742;2023-01-26T10:38:25;15.93;;;10.07;;
31384;SDS011;18016;49.788;8.742;2023-01-26T10:40:51;15.70;;;9.20;;
31384;SDS011;18016;49.788;8.742;2023-01-26T10:43:16;13.37;;;8.93;;
31384;SDS011;18016;49.788;8.742;2023-01-26T10:45:43;15.38;;;8.88;;
31384;SDS011;18016;49.788;8.742;2023-01-26T10:48:19;14.38;;;8.80;;
31384;SDS011;18016;49.788;8.742;2023-01-26T10:50:45;12.60;;;8.07;;
31384;SDS011;18016;49.788;8.742;2023-01-26T10:53:21;11.65;;;8.20;;
31384;SDS011;18016;49.788;8.742;2023-01-26T10:56:03;14.75;;;8.00;;
31384;SDS011;18016;49.788;8.742;2023-01-26T11:01:05;12.43;;;7.95;;
31384;SDS011;18016;49.788;8.742;2023-01-26T11:03:36;11.20;;;7.85;;
31384;SDS011;18016;49.788;8.742;2023-01-26T11:08:36;11.10;;;7.70;;
31384;SDS011;18016;49.788;8.742;2023-01-26T11:11:02;10.65;;;7.13;;
31384;SDS011;18016;49.788;8.742;2023-01-26T11:13:28;9.65;;;6.47;;
31384;SDS011;18016;49.788;8.742;2023-01-26T11:18:46;13.38;;;7.55;;
31384;SDS011;18016;49.788;8.742;2023-01-26T11:21:16;10.40;;;6.60;;
31384;SDS011;18016;49.788;8.742;2023-01-26T11:26:31;11.32;;;7.28;;
31384;SDS011;18016;49.788;8.742;2023-01-26T11:40:10;22.02;;;10.20;;
31384;SDS011;18016;49.788;8.742;2023-01-26T11:47:53;10.97;;;7.00;;
31384;SDS011;18016;49.788;8.742;2023-01-26T11:50:26;11.70;;;7.93;;
31384;SDS011;18016;49.788;8.742;2023-01-26T11:53:12;12.23;;;8.13;;
31384;SDS011;18016;49.788;8.742;2023-01-26T12:03:29;14.65;;;8.68;;
31384;SDS011;18016;49.788;8.742;2023-01-26T12:05:59;13.18;;;8.38;;
31384;SDS011;18016;49.788;8.742;2023-01-26T12:08:28;12.98;;;8.07;;
31384;SDS011;18016;49.788;8.742;2023-01-26T12:11:02;15.88;;;8.95;;
31384;SDS011;18016;49.788;8.742;2023-01-26T12:13:46;14.27;;;9.10;;
31384;SDS011;18016;49.788;8.742;2023-01-26T12:16:15;12.85;;;8.68;;
31384;SDS011;18016;49.788;8.742;2023-01-26T12:18:46;12.57;;;8.02;;
31384;SDS011;18016;49.788;8.742;2023-01-26T12:21:13;12.13;;;8.10;;
31384;SDS011;18016;49.788;8.742;2023-01-26T12:26:09;15.57;;;10.13;;
31384;SDS011;18016;49.788;8.742;2023-01-26T12:31:21;15.85;;;9.50;;
31384;SDS011;18016;49.788;8.742;2023-01-26T12:33:49;15.73;;;9.63;;
31384;SDS011;18016;49.788;8.742;2023-01-26T12:36:24;13.40;;;8.27;;
31384;SDS011;18016;49.788;8.742;2023-01-26T12:46:14;15.98;;;9.57;;
31384;SDS011;18016;49.788;8.742;2023-01-26T12:51:39;15.10;;;9.95;;
31384;SDS011;18016;49.788;8.742;2023-01-26T12:54:09;15.98;;;9.27;;
31384;SDS011;18016;49.788;8.742;2023-01-26T12:56:45;13.15;;;8.18;;
31384;SDS011;18016;49.788;8.742;2023-01-26T12:59:14;15.32;;;10.13;;
31384;SDS011;18016;49.788;8.742;2023-01-26T13:01:40;16.20;;;9.73;;
31384;SDS011;18016;49.788;8.742;2023-01-26T13:04:13;14.38;;;9.57;;
31384;SDS011;18016;49.788;8.742;2023-01-26T13:06:38;15.18;;;9.90;;
31384;SDS011;18016;49.788;8.742;2023-01-26T13:09:17;14.30;;;8.98;;
31384;SDS011;18016;49.788;8.742;2023-01-26T13:16:49;15.35;;;9.68;;
31384;SDS011;18016;49.788;8.742;2023-01-26T13:19:34;15.98;;;9.27;;
31384;SDS011;18016;49.788;8.742;2023-01-26T13:21:59;14.50;;;9.37;;
31384;SDS011;18016;49.788;8.742;2023-01-26T13:26:50;18.47;;;10.17;;
31384;SDS011;18016;49.788;8.742;2023-01-26T13:31:54;16.67;;;11.10;;
31384;SDS011;18016;49.788;8.742;2023-01-26T13:34:21;14.85;;;10.27;;
31384;SDS011;18016;49.788;8.742;2023-01-26T13:36:47;18.20;;;10.77;;
31384;SDS011;18016;49.788;8.742;2023-01-26T13:39:15;15.40;;;9.77;;
31384;SDS011;18016;49.788;8.742;2023-01-26T13:41:46;15.77;;;10.35;;
31384;SDS011;18016;49.788;8.742;2023-01-26T13:44:35;13.98;;;9.48;;
31384;SDS011;18016;49.788;8.742;2023-01-26T13:47:04;17.02;;;10.57;;
31384;SDS011;18016;49.788;8.742;2023-01-26T13:49:38;14.85;;;10.05;;
31384;SDS011;18016;49.788;8.742;2023-01-26T13:52:11;15.88;;;10.30;;
31384;SDS011;18016;49.788;8.742;2023-01-26T13:54:39;16.05;;;10.38;;
31384;SDS011;18016;49.788;8.742;2023-01-26T13:57:05;22.50;;;13.90;;
31384;SDS011;18016;49.788;8.742;2023-01-26T13:59:31;20.30;;;13.32;;
31384;SDS011;18016;49.788;8.742;2023-01-26T14:01:57;17.17;;;10.98;;
31384;SDS011;18016;49.788;8.742;2023-01-26T14:04:23;17.13;;;11.23;;
31384;SDS011;18016;49.788;8.742;2023-01-26T14:09:17;15.93;;;10.35;;
31384;SDS011;18016;49.788;8.742;2023-01-26T14:11:42;18.50;;;10.13;;
31384;SDS011;18016;49.788;8.742;2023-01-26T14:14:16;15.75;;;9.68;;
31384;SDS011;18016;49.788;8.742;2023-01-26T14:16:43;18.67;;;10.52;;
31384;SDS011;18016;49.788;8.742;2023-01-26T14:21:53;17.10;;;10.60;;
31384;SDS011;18016;49.788;8.742;2023-01-26T14:24:24;17.10;;;10.18;;
31384;SDS011;18016;49.788;8.742;2023-01-26T14:26:49;16.50;;;9.57;;
31384;SDS011;18016;49.788;8.742;2023-01-26T14:29:17;18.23;;;10.17;;
31384;SDS011;18016;49.788;8.742;2023-01-26T14:31:44;15.73;;;9.32;;
31384;SDS011;18016;49.788;8.742;2023-01-26T14:34:10;18.20;;;10.70;;
31384;SDS011;18016;49.788;8.742;2023-01-26T14:36:36;15.55;;;9.48;;
31384;SDS011;18016;49.788;8.742;2023-01-26T14:39:10;18.88;;;10.40;;
31384;SDS011;18016;49.788;8.742;2023-01-26T14:41:38;24.10;;;14.02;;
31384;SDS011;18016;49.788;8.742;2023-01-26T14:44:03;26.13;;;15.67;;
31384;SDS011;18016;49.788;8.742;2023-01-26T14:46:34;15.57;;;10.02;;
31384;SDS011;18016;49.788;8.742;2023-01-26T14:49:02;16.08;;;10.60;;
31384;SDS011;18016;49.788;8.742;2023-01-26T14:51:28;21.42;;;12.00;;
31384;SDS011;18016;49.788;8.742;2023-01-26T14:53:54;18.48;;;11.27;;
31384;SDS011;18016;49.788;8.742;2023-01-26T14:56:22;17.45;;;10.95;;
31384;SDS011;18016;49.788;8.742;2023-01-26T14:58:49;24.40;;;13.43;;
31384;SDS011;18016;49.788;8.742;2023-01-26T15:01:18;13.48;;;8.98;;
31384;SDS011;18016;49.788;8.742;2023-01-26T15:03:44;17.48;;;10.75;;
31384;SDS011;18016;49.788;8.742;2023-01-26T15:08:39;31.02;;;16.25;;
31384;SDS011;18016;49.788;8.742;2023-01-26T15:11:04;33.78;;;17.67;;
31384;SDS011;18016;49.788;8.742;2023-01-26T15:13:51;20.65;;;11.05;;
31384;SDS011;18016;49.788;8.742;2023-01-26T15:16:17;14.38;;;9.52;;
31384;SDS011;18016;49.788;8.742;2023-01-26T15:18:43;16.48;;;9.73;;
31384;SDS011;18016;49.788;8.742;2023-01-26T15:21:17;16.38;;;9.38;;
31384;SDS011;18016;49.788;8.742;2023-01-26T15:23:44;15.67;;;10.50;;
31384;SDS011;18016;49.788;8.742;2023-01-26T15:26:24;16.92;;;10.15;;
31384;SDS011;18016;49.788;8.742;2023-01-26T15:28:50;18.63;;;10.75;;
31384;SDS011;18016;49.788;8.742;2023-01-26T15:31:33;17.50;;;10.05;;
31384;SDS011;18016;49.788;8.742;2023-01-26T15:33:58;16.63;;;10.07;;
31384;SDS011;18016;49.788;8.742;2023-01-26T15:36:26;16.05;;;9.88;;
31384;SDS011;18016;49.788;8.742;2023-01-26T15:38:57;15.55;;;9.30;;
31384;SDS011;18016;49.788;8.742;2023-01-26T15:41:23;22.98;;;11.45;;
31384;SDS011;18016;49.788;8.742;2023-01-26T15:43:48;19.37;;;10.43;;
31384;SDS011;18016;49.788;8.742;2023-01-26T15:46:13;15.63;;;9.87;;
31384;SDS011;18016;49.788;8.742;2023-01-26T15:48:39;18.13;;;10.45;;
31384;SDS011;18016;49.788;8.742;2023-01-26T15:51:07;19.33;;;10.60;;
31384;SDS011;18016;49.788;8.742;2023-01-26T15:53:34;21.35;;;11.95;;
31384;SDS011;18016;49.788;8.742;2023-01-26T15:55:59;19.13;;;11.47;;
31384;SDS011;18016;49.788;8.742;2023-01-26T15:58:25;18.75;;;10.63;;
31384;SDS011;18016;49.788;8.742;2023-01-26T16:00:50;19.73;;;11.70;;
31384;SDS011;18016;49.788;8.742;2023-01-26T16:03:19;21.77;;;11.65;;
31384;SDS011;18016;49.788;8.742;2023-01-26T16:05:44;22.52;;;10.90;;
31384;SDS011;18016;49.788;8.742;2023-01-26T16:08:13;20.10;;;11.70;;
31384;SDS011;18016;49.788;8.742;2023-01-26T16:10:39;23.15;;;12.90;;
31384;SDS011;18016;49.788;8.742;2023-01-26T16:13:07;22.15;;;11.80;;
31384;SDS011;18016;49.788;8.742;2023-01-26T16:18:00;20.55;;;11.10;;
31384;SDS011;18016;49.788;8.742;2023-01-26T16:20:26;17.47;;;10.90;;